Dalby, Queensland

5:40 AM AEST on July 25, 2016 (GMT +1000)
The Quarter Deck, Dalby, Queensland | | Change Station

Elev 1129 ft 27.18 °S, 151.28 °E | Updated 3 seconds ago

Clear
Clear
42.6 °F
Feels Like 43 °F
N
0.0
Wind Variable Wind from SW
Gusts 0.0 mph

Today
High -- | Low -- °F
--% Chance of Precip.
Yesterday
High -- | Low -- °F
Precip. -- in
Pressure 30.06 in
Visibility 6.2 miles
Clouds
Windchill 43 °F
Dew Point 41 °F
Humidity 95%
Rainfall 0.00 in
Snow Depth Not available.
6:39 AM 5:23 PM
Waning Gibbous, 73% visible
METAR YBOK 241900Z AUTO 26008KT 9999 // NCD 05/03 Q1018
Pressure 30.06 in
Visibility 6.2 miles
Clouds
Windchill 43 °F
Dew Point 41 °F
Humidity 95%
Rainfall 0.00 in
Snow Depth Not available.
6:39 AM 5:23 PM
Waning Gibbous, 73% visible
METAR YBOK 241900Z AUTO 26008KT 9999 // NCD 05/03 Q1018

10-Day Weather Forecast

No radar image for this location.
×

Almanac

Astronomy

Jul. 25, 2016 Rise Set
Actual Time
Civil Twilight
Nautical Twilight
Astronomical Twilight
Moon
Length of Visible Light
Length of Day
Tomorrow will be .
, % of the Moon is Illuminated

Today's Extremes

Country Highs Country Lows

Community

WunderPhotos

Upload Photos

1,927,172 photos uploaded!

WunderBlog® & News

Nearby

Air Quality

  Air Quality AQ Index Pollutant
Not available.

Snow Depth

Station Depth Elevation

Earthquake Activity

City Distance Mag. Time & Date
Minimum magnitude displayed is 2.5.

Coastal Water Temperatures

Place Temperature

Stations

Nearby Weather Stations

Station Location Temp. Windchill Dew Point Humidity Wind Precip. Elev Updated Type